sensor_id;sensor_type;location;lat;lon;timestamp;P1;durP1;ratioP1;P2;durP2;ratioP2
16197;SDS011;8206;51.440;6.914;2023-05-07T00:01:15;2.40;;;2.20;;
16197;SDS011;8206;51.440;6.914;2023-05-07T00:03:43;1.65;;;1.52;;
16197;SDS011;8206;51.440;6.914;2023-05-07T00:06:10;1.58;;;1.48;;
16197;SDS011;8206;51.440;6.914;2023-05-07T00:08:37;1.35;;;1.25;;
16197;SDS011;8206;51.440;6.914;2023-05-07T00:11:04;1.67;;;1.58;;
16197;SDS011;8206;51.440;6.914;2023-05-07T00:13:31;1.17;;;1.08;;
16197;SDS011;8206;51.440;6.914;2023-05-07T00:16:00;2.50;;;2.30;;
16197;SDS011;8206;51.440;6.914;2023-05-07T00:18:27;3.40;;;2.95;;
16197;SDS011;8206;51.440;6.914;2023-05-07T00:20:55;1.75;;;1.65;;
16197;SDS011;8206;51.440;6.914;2023-05-07T00:23:22;1.48;;;1.48;;
16197;SDS011;8206;51.440;6.914;2023-05-07T00:25:48;1.80;;;1.70;;
16197;SDS011;8206;51.440;6.914;2023-05-07T00:28:15;2.63;;;2.25;;
16197;SDS011;8206;51.440;6.914;2023-05-07T00:30:42;2.30;;;1.83;;
16197;SDS011;8206;51.440;6.914;2023-05-07T00:33:08;2.90;;;1.73;;
16197;SDS011;8206;51.440;6.914;2023-05-07T00:35:35;2.60;;;1.60;;
16197;SDS011;8206;51.440;6.914;2023-05-07T00:38:03;1.95;;;1.85;;
16197;SDS011;8206;51.440;6.914;2023-05-07T00:40:30;2.70;;;2.50;;
16197;SDS011;8206;51.440;6.914;2023-05-07T00:42:56;1.30;;;1.30;;
16197;SDS011;8206;51.440;6.914;2023-05-07T00:45:25;2.05;;;1.95;;
16197;SDS011;8206;51.440;6.914;2023-05-07T00:47:53;2.55;;;2.42;;
16197;SDS011;8206;51.440;6.914;2023-05-07T00:50:21;2.88;;;2.10;;
16197;SDS011;8206;51.440;6.914;2023-05-07T00:52:48;2.85;;;2.65;;
16197;SDS011;8206;51.440;6.914;2023-05-07T00:55:16;2.38;;;1.83;;
16197;SDS011;8206;51.440;6.914;2023-05-07T00:57:44;1.65;;;1.55;;
16197;SDS011;8206;51.440;6.914;2023-05-07T01:00:11;3.05;;;2.85;;
16197;SDS011;8206;51.440;6.914;2023-05-07T01:02:38;2.15;;;1.95;;
16197;SDS011;8206;51.440;6.914;2023-05-07T01:05:06;6.03;;;2.90;;
16197;SDS011;8206;51.440;6.914;2023-05-07T01:07:35;6.00;;;2.42;;
16197;SDS011;8206;51.440;6.914;2023-05-07T01:10:04;5.43;;;2.08;;
16197;SDS011;8206;51.440;6.914;2023-05-07T01:12:33;2.33;;;2.22;;
16197;SDS011;8206;51.440;6.914;2023-05-07T01:15:01;2.30;;;2.20;;
16197;SDS011;8206;51.440;6.914;2023-05-07T01:17:28;3.53;;;3.22;;
16197;SDS011;8206;51.440;6.914;2023-05-07T01:19:55;3.03;;;2.75;;
16197;SDS011;8206;51.440;6.914;2023-05-07T01:22:27;2.33;;;2.22;;
16197;SDS011;8206;51.440;6.914;2023-05-07T01:24:56;2.95;;;2.75;;
16197;SDS011;8206;51.440;6.914;2023-05-07T01:27:24;2.47;;;2.30;;
16197;SDS011;8206;51.440;6.914;2023-05-07T01:29:51;2.28;;;2.10;;
16197;SDS011;8206;51.440;6.914;2023-05-07T01:32:18;14.15;;;4.32;;
16197;SDS011;8206;51.440;6.914;2023-05-07T01:34:47;4.45;;;3.00;;
16197;SDS011;8206;51.440;6.914;2023-05-07T01:37:16;3.67;;;3.30;;
16197;SDS011;8206;51.440;6.914;2023-05-07T01:39:44;1.92;;;1.83;;
16197;SDS011;8206;51.440;6.914;2023-05-07T01:42:11;2.72;;;2.58;;
16197;SDS011;8206;51.440;6.914;2023-05-07T01:44:38;5.07;;;3.10;;
16197;SDS011;8206;51.440;6.914;2023-05-07T01:47:05;2.75;;;2.55;;
16197;SDS011;8206;51.440;6.914;2023-05-07T01:49:33;2.95;;;2.63;;
16197;SDS011;8206;51.440;6.914;2023-05-07T01:52:00;3.08;;;2.45;;
16197;SDS011;8206;51.440;6.914;2023-05-07T01:54:27;2.75;;;2.63;;
16197;SDS011;8206;51.440;6.914;2023-05-07T01:56:56;3.58;;;3.38;;
16197;SDS011;8206;51.440;6.914;2023-05-07T01:59:23;5.68;;;2.42;;
16197;SDS011;8206;51.440;6.914;2023-05-07T02:01:50;2.90;;;2.67;;
16197;SDS011;8206;51.440;6.914;2023-05-07T02:04:16;4.22;;;3.38;;
16197;SDS011;8206;51.440;6.914;2023-05-07T02:06:43;3.50;;;2.80;;
16197;SDS011;8206;51.440;6.914;2023-05-07T02:09:10;2.67;;;2.47;;
16197;SDS011;8206;51.440;6.914;2023-05-07T02:11:37;2.45;;;2.25;;
16197;SDS011;8206;51.440;6.914;2023-05-07T02:14:05;4.55;;;3.35;;
16197;SDS011;8206;51.440;6.914;2023-05-07T02:16:31;3.00;;;2.78;;
16197;SDS011;8206;51.440;6.914;2023-05-07T02:18:58;2.63;;;1.73;;
16197;SDS011;8206;51.440;6.914;2023-05-07T02:21:25;2.58;;;2.45;;
16197;SDS011;8206;51.440;6.914;2023-05-07T02:23:52;3.58;;;3.28;;
16197;SDS011;8206;51.440;6.914;2023-05-07T02:26:18;3.33;;;3.08;;
16197;SDS011;8206;51.440;6.914;2023-05-07T02:28:46;2.97;;;2.67;;
16197;SDS011;8206;51.440;6.914;2023-05-07T02:31:14;2.72;;;2.58;;
16197;SDS011;8206;51.440;6.914;2023-05-07T02:33:41;3.78;;;3.42;;
16197;SDS011;8206;51.440;6.914;2023-05-07T02:36:08;4.53;;;2.97;;
16197;SDS011;8206;51.440;6.914;2023-05-07T02:38:35;4.00;;;3.22;;
16197;SDS011;8206;51.440;6.914;2023-05-07T02:41:02;3.60;;;3.40;;
16197;SDS011;8206;51.440;6.914;2023-05-07T02:43:29;3.05;;;2.85;;
16197;SDS011;8206;51.440;6.914;2023-05-07T02:46:02;4.25;;;3.85;;
16197;SDS011;8206;51.440;6.914;2023-05-07T02:48:30;3.40;;;3.10;;
16197;SDS011;8206;51.440;6.914;2023-05-07T02:50:57;2.75;;;2.35;;
16197;SDS011;8206;51.440;6.914;2023-05-07T02:53:24;3.47;;;3.28;;
16197;SDS011;8206;51.440;6.914;2023-05-07T02:55:51;2.60;;;2.42;;
16197;SDS011;8206;51.440;6.914;2023-05-07T02:58:18;2.72;;;2.53;;
16197;SDS011;8206;51.440;6.914;2023-05-07T03:00:45;3.05;;;2.80;;
16197;SDS011;8206;51.440;6.914;2023-05-07T03:03:12;8.45;;;3.97;;
16197;SDS011;8206;51.440;6.914;2023-05-07T03:05:40;3.67;;;3.38;;
16197;SDS011;8206;51.440;6.914;2023-05-07T03:08:07;4.78;;;4.45;;
16197;SDS011;8206;51.440;6.914;2023-05-07T03:10:34;10.10;;;5.35;;
16197;SDS011;8206;51.440;6.914;2023-05-07T03:13:01;2.25;;;2.13;;
16197;SDS011;8206;51.440;6.914;2023-05-07T03:15:28;3.42;;;2.72;;
16197;SDS011;8206;51.440;6.914;2023-05-07T03:17:55;4.05;;;3.50;;
16197;SDS011;8206;51.440;6.914;2023-05-07T03:20:22;4.90;;;3.83;;
16197;SDS011;8206;51.440;6.914;2023-05-07T03:22:50;4.47;;;3.97;;
16197;SDS011;8206;51.440;6.914;2023-05-07T03:25:16;3.53;;;3.30;;
16197;SDS011;8206;51.440;6.914;2023-05-07T03:27:43;4.45;;;3.35;;
16197;SDS011;8206;51.440;6.914;2023-05-07T03:30:10;4.07;;;3.13;;
16197;SDS011;8206;51.440;6.914;2023-05-07T03:32:38;5.43;;;4.97;;
16197;SDS011;8206;51.440;6.914;2023-05-07T03:35:05;4.63;;;4.28;;
16197;SDS011;8206;51.440;6.914;2023-05-07T03:37:32;5.78;;;3.80;;
16197;SDS011;8206;51.440;6.914;2023-05-07T03:40:00;4.97;;;4.28;;
16197;SDS011;8206;51.440;6.914;2023-05-07T03:42:27;10.70;;;4.13;;
16197;SDS011;8206;51.440;6.914;2023-05-07T03:44:55;5.25;;;3.20;;
16197;SDS011;8206;51.440;6.914;2023-05-07T03:47:21;5.00;;;4.53;;
16197;SDS011;8206;51.440;6.914;2023-05-07T03:49:48;3.38;;;3.17;;
16197;SDS011;8206;51.440;6.914;2023-05-07T03:52:15;4.05;;;3.75;;
16197;SDS011;8206;51.440;6.914;2023-05-07T03:54:47;3.97;;;3.63;;
16197;SDS011;8206;51.440;6.914;2023-05-07T03:57:16;7.22;;;3.55;;
16197;SDS011;8206;51.440;6.914;2023-05-07T03:59:42;7.60;;;5.32;;
16197;SDS011;8206;51.440;6.914;2023-05-07T04:02:09;4.32;;;4.03;;
16197;SDS011;8206;51.440;6.914;2023-05-07T04:04:35;9.65;;;4.97;;
16197;SDS011;8206;51.440;6.914;2023-05-07T04:07:02;5.57;;;5.05;;
16197;SDS011;8206;51.440;6.914;2023-05-07T04:09:29;5.40;;;4.43;;
16197;SDS011;8206;51.440;6.914;2023-05-07T04:11:56;4.55;;;4.13;;
16197;SDS011;8206;51.440;6.914;2023-05-07T04:14:23;7.15;;;4.68;;
16197;SDS011;8206;51.440;6.914;2023-05-07T04:16:50;4.85;;;4.50;;
16197;SDS011;8206;51.440;6.914;2023-05-07T04:19:17;3.92;;;3.67;;
16197;SDS011;8206;51.440;6.914;2023-05-07T04:21:43;5.35;;;4.70;;
16197;SDS011;8206;51.440;6.914;2023-05-07T04:24:10;5.10;;;4.70;;
16197;SDS011;8206;51.440;6.914;2023-05-07T04:26:37;4.72;;;4.43;;
16197;SDS011;8206;51.440;6.914;2023-05-07T04:29:03;3.47;;;3.17;;
16197;SDS011;8206;51.440;6.914;2023-05-07T04:31:32;4.82;;;4.40;;
16197;SDS011;8206;51.440;6.914;2023-05-07T04:33:58;9.85;;;5.15;;
16197;SDS011;8206;51.440;6.914;2023-05-07T04:36:25;6.38;;;5.78;;
16197;SDS011;8206;51.440;6.914;2023-05-07T04:38:54;5.60;;;5.10;;
16197;SDS011;8206;51.440;6.914;2023-05-07T04:41:20;7.32;;;4.05;;
16197;SDS011;8206;51.440;6.914;2023-05-07T04:43:47;4.75;;;4.45;;
16197;SDS011;8206;51.440;6.914;2023-05-07T04:46:14;4.30;;;3.92;;
16197;SDS011;8206;51.440;6.914;2023-05-07T04:48:42;10.77;;;4.25;;
16197;SDS011;8206;51.440;6.914;2023-05-07T04:51:08;6.70;;;5.90;;
16197;SDS011;8206;51.440;6.914;2023-05-07T04:53:35;6.05;;;5.57;;
16197;SDS011;8206;51.440;6.914;2023-05-07T04:56:03;5.88;;;5.30;;
16197;SDS011;8206;51.440;6.914;2023-05-07T04:58:30;11.25;;;5.93;;
16197;SDS011;8206;51.440;6.914;2023-05-07T05:00:57;5.05;;;4.28;;
16197;SDS011;8206;51.440;6.914;2023-05-07T05:03:23;6.38;;;5.22;;
16197;SDS011;8206;51.440;6.914;2023-05-07T05:05:51;5.50;;;4.22;;
16197;SDS011;8206;51.440;6.914;2023-05-07T05:08:18;5.47;;;4.97;;
16197;SDS011;8206;51.440;6.914;2023-05-07T05:10:45;5.55;;;5.13;;
16197;SDS011;8206;51.440;6.914;2023-05-07T05:13:13;5.95;;;4.72;;
16197;SDS011;8206;51.440;6.914;2023-05-07T05:15:40;3.70;;;3.40;;
16197;SDS011;8206;51.440;6.914;2023-05-07T05:18:06;4.70;;;4.40;;
16197;SDS011;8206;51.440;6.914;2023-05-07T05:20:33;5.88;;;5.20;;
16197;SDS011;8206;51.440;6.914;2023-05-07T05:23:01;6.22;;;5.82;;
16197;SDS011;8206;51.440;6.914;2023-05-07T05:25:28;9.30;;;5.63;;
16197;SDS011;8206;51.440;6.914;2023-05-07T05:27:54;6.53;;;4.95;;
16197;SDS011;8206;51.440;6.914;2023-05-07T05:30:21;5.32;;;4.65;;
16197;SDS011;8206;51.440;6.914;2023-05-07T05:32:48;5.40;;;5.00;;
16197;SDS011;8206;51.440;6.914;2023-05-07T05:35:14;9.02;;;4.55;;
16197;SDS011;8206;51.440;6.914;2023-05-07T05:37:41;6.07;;;3.78;;
16197;SDS011;8206;51.440;6.914;2023-05-07T05:40:10;4.88;;;4.47;;
16197;SDS011;8206;51.440;6.914;2023-05-07T05:42:37;4.32;;;3.70;;
16197;SDS011;8206;51.440;6.914;2023-05-07T05:45:04;4.70;;;4.30;;
16197;SDS011;8206;51.440;6.914;2023-05-07T05:47:31;4.55;;;4.15;;
16197;SDS011;8206;51.440;6.914;2023-05-07T05:49:58;3.88;;;3.58;;
16197;SDS011;8206;51.440;6.914;2023-05-07T05:52:25;4.35;;;3.55;;
16197;SDS011;8206;51.440;6.914;2023-05-07T05:54:51;6.18;;;4.45;;
16197;SDS011;8206;51.440;6.914;2023-05-07T05:57:19;3.30;;;3.13;;
16197;SDS011;8206;51.440;6.914;2023-05-07T05:59:46;3.40;;;3.20;;
16197;SDS011;8206;51.440;6.914;2023-05-07T06:02:13;2.70;;;2.53;;
16197;SDS011;8206;51.440;6.914;2023-05-07T06:04:39;3.60;;;3.22;;
16197;SDS011;8206;51.440;6.914;2023-05-07T06:07:07;1.80;;;1.80;;
16197;SDS011;8206;51.440;6.914;2023-05-07T06:09:34;1.65;;;1.65;;
16197;SDS011;8206;51.440;6.914;2023-05-07T06:12:00;3.15;;;2.95;;
16197;SDS011;8206;51.440;6.914;2023-05-07T06:14:28;2.85;;;2.75;;
16197;SDS011;8206;51.440;6.914;2023-05-07T06:16:56;2.45;;;2.35;;
16197;SDS011;8206;51.440;6.914;2023-05-07T06:19:23;2.53;;;2.33;;
16197;SDS011;8206;51.440;6.914;2023-05-07T06:21:51;4.05;;;3.55;;
16197;SDS011;8206;51.440;6.914;2023-05-07T06:24:18;2.25;;;2.08;;
16197;SDS011;8206;51.440;6.914;2023-05-07T06:26:44;2.10;;;1.83;;
16197;SDS011;8206;51.440;6.914;2023-05-07T06:29:11;1.73;;;1.73;;
16197;SDS011;8206;51.440;6.914;2023-05-07T06:31:39;1.98;;;1.88;;
16197;SDS011;8206;51.440;6.914;2023-05-07T06:34:06;1.85;;;1.58;;
16197;SDS011;8206;51.440;6.914;2023-05-07T06:36:33;2.40;;;2.20;;
16197;SDS011;8206;51.440;6.914;2023-05-07T06:39:00;2.60;;;2.28;;
16197;SDS011;8206;51.440;6.914;2023-05-07T06:41:26;3.25;;;1.42;;
16197;SDS011;8206;51.440;6.914;2023-05-07T06:43:53;1.60;;;1.50;;
16197;SDS011;8206;51.440;6.914;2023-05-07T06:46:20;1.98;;;1.88;;
16197;SDS011;8206;51.440;6.914;2023-05-07T06:48:48;0.50;;;0.50;;
16197;SDS011;8206;51.440;6.914;2023-05-07T06:51:14;4.60;;;1.17;;
16197;SDS011;8206;51.440;6.914;2023-05-07T06:53:41;0.50;;;0.50;;
16197;SDS011;8206;51.440;6.914;2023-05-07T06:56:08;1.27;;;1.17;;
16197;SDS011;8206;51.440;6.914;2023-05-07T06:58:34;1.42;;;1.33;;
16197;SDS011;8206;51.440;6.914;2023-05-07T07:01:01;0.65;;;0.65;;
16197;SDS011;8206;51.440;6.914;2023-05-07T07:03:28;0.90;;;0.90;;
16197;SDS011;8206;51.440;6.914;2023-05-07T07:05:56;0.82;;;0.82;;
16197;SDS011;8206;51.440;6.914;2023-05-07T07:08:22;0.65;;;0.65;;
16197;SDS011;8206;51.440;6.914;2023-05-07T07:10:49;1.33;;;1.30;;
16197;SDS011;8206;51.440;6.914;2023-05-07T07:13:16;2.25;;;1.33;;
16197;SDS011;8206;51.440;6.914;2023-05-07T07:15:42;0.70;;;0.70;;
16197;SDS011;8206;51.440;6.914;2023-05-07T07:18:09;1.23;;;1.15;;
16197;SDS011;8206;51.440;6.914;2023-05-07T07:20:36;1.52;;;0.77;;
16197;SDS011;8206;51.440;6.914;2023-05-07T07:23:04;0.95;;;0.95;;
16197;SDS011;8206;51.440;6.914;2023-05-07T07:25:31;1.35;;;1.35;;
16197;SDS011;8206;51.440;6.914;2023-05-07T07:27:57;1.05;;;1.05;;
16197;SDS011;8206;51.440;6.914;2023-05-07T07:30:24;1.00;;;1.00;;
16197;SDS011;8206;51.440;6.914;2023-05-07T07:32:52;1.13;;;1.13;;
16197;SDS011;8206;51.440;6.914;2023-05-07T07:35:20;1.13;;;1.08;;
16197;SDS011;8206;51.440;6.914;2023-05-07T07:37:46;1.52;;;0.90;;
16197;SDS011;8206;51.440;6.914;2023-05-07T07:40:16;2.70;;;1.48;;
16197;SDS011;8206;51.440;6.914;2023-05-07T07:42:42;0.85;;;0.85;;
16197;SDS011;8206;51.440;6.914;2023-05-07T07:45:09;1.17;;;1.17;;
16197;SDS011;8206;51.440;6.914;2023-05-07T07:47:36;1.02;;;1.02;;
16197;SDS011;8206;51.440;6.914;2023-05-07T07:50:03;1.25;;;1.25;;
16197;SDS011;8206;51.440;6.914;2023-05-07T07:52:30;0.90;;;0.90;;
16197;SDS011;8206;51.440;6.914;2023-05-07T07:54:57;0.77;;;0.77;;
16197;SDS011;8206;51.440;6.914;2023-05-07T07:57:25;0.68;;;0.68;;
16197;SDS011;8206;51.440;6.914;2023-05-07T07:59:52;1.17;;;1.15;;
16197;SDS011;8206;51.440;6.914;2023-05-07T08:02:18;0.73;;;0.73;;
16197;SDS011;8206;51.440;6.914;2023-05-07T08:04:45;1.20;;;1.10;;
16197;SDS011;8206;51.440;6.914;2023-05-07T08:07:12;1.42;;;1.33;;
16197;SDS011;8206;51.440;6.914;2023-05-07T08:09:39;2.97;;;1.38;;
16197;SDS011;8206;51.440;6.914;2023-05-07T08:12:06;0.40;;;0.40;;
16197;SDS011;8206;51.440;6.914;2023-05-07T08:14:34;1.88;;;1.70;;
16197;SDS011;8206;51.440;6.914;2023-05-07T08:17:02;9.85;;;1.42;;
16197;SDS011;8206;51.440;6.914;2023-05-07T08:19:28;2.30;;;1.02;;
16197;SDS011;8206;51.440;6.914;2023-05-07T08:21:55;1.13;;;1.13;;
16197;SDS011;8206;51.440;6.914;2023-05-07T08:24:22;0.50;;;0.50;;
16197;SDS011;8206;51.440;6.914;2023-05-07T08:26:48;1.33;;;1.17;;
16197;SDS011;8206;51.440;6.914;2023-05-07T08:29:15;0.63;;;0.63;;
16197;SDS011;8206;51.440;6.914;2023-05-07T08:31:43;0.95;;;0.68;;
16197;SDS011;8206;51.440;6.914;2023-05-07T08:34:10;0.70;;;0.70;;
16197;SDS011;8206;51.440;6.914;2023-05-07T08:36:36;0.70;;;0.70;;
16197;SDS011;8206;51.440;6.914;2023-05-07T08:39:03;0.88;;;0.88;;
16197;SDS011;8206;51.440;6.914;2023-05-07T08:41:30;0.30;;;0.30;;
16197;SDS011;8206;51.440;6.914;2023-05-07T08:43:58;0.98;;;0.73;;
16197;SDS011;8206;51.440;6.914;2023-05-07T08:46:25;3.95;;;1.38;;
16197;SDS011;8206;51.440;6.914;2023-05-07T08:48:59;0.70;;;0.70;;
16197;SDS011;8206;51.440;6.914;2023-05-07T08:51:25;0.77;;;0.77;;
16197;SDS011;8206;51.440;6.914;2023-05-07T08:53:52;0.50;;;0.50;;
16197;SDS011;8206;51.440;6.914;2023-05-07T08:56:19;2.25;;;0.85;;
16197;SDS011;8206;51.440;6.914;2023-05-07T08:58:46;2.00;;;1.27;;
16197;SDS011;8206;51.440;6.914;2023-05-07T09:01:14;0.63;;;0.52;;
16197;SDS011;8206;51.440;6.914;2023-05-07T09:03:41;0.40;;;0.40;;
16197;SDS011;8206;51.440;6.914;2023-05-07T09:06:12;1.33;;;1.23;;
16197;SDS011;8206;51.440;6.914;2023-05-07T09:08:39;0.50;;;0.50;;
16197;SDS011;8206;51.440;6.914;2023-05-07T09:11:06;0.95;;;0.95;;
16197;SDS011;8206;51.440;6.914;2023-05-07T09:13:32;0.82;;;0.82;;
16197;SDS011;8206;51.440;6.914;2023-05-07T09:16:02;0.65;;;0.50;;
16197;SDS011;8206;51.440;6.914;2023-05-07T09:18:39;0.55;;;0.55;;
16197;SDS011;8206;51.440;6.914;2023-05-07T09:21:09;0.47;;;0.47;;
16197;SDS011;8206;51.440;6.914;2023-05-07T09:23:37;0.52;;;0.52;;
16197;SDS011;8206;51.440;6.914;2023-05-07T09:26:04;0.25;;;0.25;;
16197;SDS011;8206;51.440;6.914;2023-05-07T09:28:37;0.40;;;0.40;;
16197;SDS011;8206;51.440;6.914;2023-05-07T09:31:04;0.47;;;0.47;;
16197;SDS011;8206;51.440;6.914;2023-05-07T09:33:31;0.30;;;0.30;;
16197;SDS011;8206;51.440;6.914;2023-05-07T09:35:58;0.45;;;0.45;;
16197;SDS011;8206;51.440;6.914;2023-05-07T09:38:24;0.17;;;0.17;;
16197;SDS011;8206;51.440;6.914;2023-05-07T09:41:02;0.30;;;0.30;;
16197;SDS011;8206;51.440;6.914;2023-05-07T09:43:31;0.40;;;0.40;;
16197;SDS011;8206;51.440;6.914;2023-05-07T09:45:59;0.32;;;0.32;;
16197;SDS011;8206;51.440;6.914;2023-05-07T09:48:29;1.02;;;0.93;;
16197;SDS011;8206;51.440;6.914;2023-05-07T09:50:57;0.73;;;0.73;;
16197;SDS011;8206;51.440;6.914;2023-05-07T09:53:28;2.17;;;0.55;;
16197;SDS011;8206;51.440;6.914;2023-05-07T09:55:56;0.40;;;0.40;;
16197;SDS011;8206;51.440;6.914;2023-05-07T09:58:25;0.80;;;0.80;;
16197;SDS011;8206;51.440;6.914;2023-05-07T10:00:53;1.00;;;0.50;;
16197;SDS011;8206;51.440;6.914;2023-05-07T10:03:20;1.00;;;0.68;;
16197;SDS011;8206;51.440;6.914;2023-05-07T10:05:49;0.52;;;0.52;;
16197;SDS011;8206;51.440;6.914;2023-05-07T10:08:17;0.20;;;0.20;;
16197;SDS011;8206;51.440;6.914;2023-05-07T10:10:44;0.20;;;0.20;;
16197;SDS011;8206;51.440;6.914;2023-05-07T10:13:12;0.20;;;0.20;;
16197;SDS011;8206;51.440;6.914;2023-05-07T10:15:40;0.60;;;0.60;;
16197;SDS011;8206;51.440;6.914;2023-05-07T10:18:07;0.98;;;0.98;;
16197;SDS011;8206;51.440;6.914;2023-05-07T10:20:34;0.30;;;0.30;;
16197;SDS011;8206;51.440;6.914;2023-05-07T10:23:03;0.50;;;0.50;;
16197;SDS011;8206;51.440;6.914;2023-05-07T10:25:31;0.95;;;0.40;;
16197;SDS011;8206;51.440;6.914;2023-05-07T10:27:59;0.45;;;0.45;;
16197;SDS011;8206;51.440;6.914;2023-05-07T10:30:31;1.20;;;0.70;;
16197;SDS011;8206;51.440;6.914;2023-05-07T10:33:08;0.85;;;0.85;;
16197;SDS011;8206;51.440;6.914;2023-05-07T10:35:37;0.20;;;0.20;;
16197;SDS011;8206;51.440;6.914;2023-05-07T10:38:06;0.60;;;0.60;;
16197;SDS011;8206;51.440;6.914;2023-05-07T10:40:34;0.47;;;0.47;;
16197;SDS011;8206;51.440;6.914;2023-05-07T10:43:01;0.75;;;0.60;;
16197;SDS011;8206;51.440;6.914;2023-05-07T10:45:30;0.68;;;0.68;;
16197;SDS011;8206;51.440;6.914;2023-05-07T10:48:08;0.40;;;0.40;;
16197;SDS011;8206;51.440;6.914;2023-05-07T10:50:36;0.47;;;0.47;;
16197;SDS011;8206;51.440;6.914;2023-05-07T10:53:25;0.57;;;0.57;;
16197;SDS011;8206;51.440;6.914;2023-05-07T10:58:52;0.55;;;0.55;;
16197;SDS011;8206;51.440;6.914;2023-05-07T11:04:16;0.52;;;0.52;;
16197;SDS011;8206;51.440;6.914;2023-05-07T11:09:56;2.03;;;1.13;;
16197;SDS011;8206;51.440;6.914;2023-05-07T11:15:34;0.38;;;0.38;;
16197;SDS011;8206;51.440;6.914;2023-05-07T11:18:02;1.17;;;0.73;;
16197;SDS011;8206;51.440;6.914;2023-05-07T11:20:47;0.45;;;0.45;;
16197;SDS011;8206;51.440;6.914;2023-05-07T11:26:42;0.80;;;0.77;;
16197;SDS011;8206;51.440;6.914;2023-05-07T11:29:14;0.50;;;0.50;;
16197;SDS011;8206;51.440;6.914;2023-05-07T11:31:42;0.98;;;0.88;;
16197;SDS011;8206;51.440;6.914;2023-05-07T11:34:09;0.32;;;0.32;;
16197;SDS011;8206;51.440;6.914;2023-05-07T11:36:41;0.68;;;0.68;;
16197;SDS011;8206;51.440;6.914;2023-05-07T11:39:28;0.43;;;0.43;;
16197;SDS011;8206;51.440;6.914;2023-05-07T11:41:56;0.40;;;0.40;;
16197;SDS011;8206;51.440;6.914;2023-05-07T11:44:23;0.57;;;0.57;;
16197;SDS011;8206;51.440;6.914;2023-05-07T11:46:50;0.65;;;0.65;;
16197;SDS011;8206;51.440;6.914;2023-05-07T11:49:17;1.75;;;1.25;;
16197;SDS011;8206;51.440;6.914;2023-05-07T11:51:45;1.17;;;1.08;;
16197;SDS011;8206;51.440;6.914;2023-05-07T11:54:15;0.65;;;0.65;;
16197;SDS011;8206;51.440;6.914;2023-05-07T11:56:43;3.00;;;1.15;;
16197;SDS011;8206;51.440;6.914;2023-05-07T11:59:11;2.75;;;1.17;;
16197;SDS011;8206;51.440;6.914;2023-05-07T12:01:37;0.95;;;0.95;;
16197;SDS011;8206;51.440;6.914;2023-05-07T12:04:04;0.47;;;0.47;;
16197;SDS011;8206;51.440;6.914;2023-05-07T12:06:31;0.50;;;0.50;;
16197;SDS011;8206;51.440;6.914;2023-05-07T12:09:03;0.57;;;0.57;;
16197;SDS011;8206;51.440;6.914;2023-05-07T12:11:32;0.35;;;0.35;;
16197;SDS011;8206;51.440;6.914;2023-05-07T12:13:58;0.98;;;0.98;;
16197;SDS011;8206;51.440;6.914;2023-05-07T12:16:25;0.70;;;0.70;;
16197;SDS011;8206;51.440;6.914;2023-05-07T12:18:52;0.47;;;0.47;;
16197;SDS011;8206;51.440;6.914;2023-05-07T12:21:19;0.57;;;0.57;;
16197;SDS011;8206;51.440;6.914;2023-05-07T12:23:46;0.38;;;0.38;;
16197;SDS011;8206;51.440;6.914;2023-05-07T12:26:15;0.30;;;0.30;;
16197;SDS011;8206;51.440;6.914;2023-05-07T12:28:42;1.23;;;0.50;;
16197;SDS011;8206;51.440;6.914;2023-05-07T12:31:08;0.35;;;0.35;;
16197;SDS011;8206;51.440;6.914;2023-05-07T12:33:35;0.73;;;0.73;;
16197;SDS011;8206;51.440;6.914;2023-05-07T12:36:02;1.33;;;1.27;;
16197;SDS011;8206;51.440;6.914;2023-05-07T12:38:36;1.23;;;0.52;;
16197;SDS011;8206;51.440;6.914;2023-05-07T12:41:05;3.88;;;1.20;;
16197;SDS011;8206;51.440;6.914;2023-05-07T12:43:35;0.45;;;0.45;;
16197;SDS011;8206;51.440;6.914;2023-05-07T12:46:04;0.70;;;0.70;;
16197;SDS011;8206;51.440;6.914;2023-05-07T12:48:32;0.30;;;0.30;;
16197;SDS011;8206;51.440;6.914;2023-05-07T12:51:00;0.52;;;0.52;;
16197;SDS011;8206;51.440;6.914;2023-05-07T12:53:27;1.65;;;1.17;;
16197;SDS011;8206;51.440;6.914;2023-05-07T12:55:55;0.70;;;0.70;;
16197;SDS011;8206;51.440;6.914;2023-05-07T12:58:24;0.70;;;0.70;;
16197;SDS011;8206;51.440;6.914;2023-05-07T13:00:53;0.80;;;0.80;;
16197;SDS011;8206;51.440;6.914;2023-05-07T13:03:23;0.40;;;0.40;;
16197;SDS011;8206;51.440;6.914;2023-05-07T13:05:51;5.50;;;1.08;;
16197;SDS011;8206;51.440;6.914;2023-05-07T13:08:26;0.20;;;0.20;;
16197;SDS011;8206;51.440;6.914;2023-05-07T13:10:54;0.88;;;0.88;;
16197;SDS011;8206;51.440;6.914;2023-05-07T13:13:21;1.35;;;1.25;;
16197;SDS011;8206;51.440;6.914;2023-05-07T13:15:47;0.68;;;0.68;;
16197;SDS011;8206;51.440;6.914;2023-05-07T13:18:15;0.80;;;0.80;;
16197;SDS011;8206;51.440;6.914;2023-05-07T13:20:42;1.13;;;1.13;;
16197;SDS011;8206;51.440;6.914;2023-05-07T13:23:09;1.27;;;1.27;;
16197;SDS011;8206;51.440;6.914;2023-05-07T13:25:35;1.38;;;1.27;;
16197;SDS011;8206;51.440;6.914;2023-05-07T13:28:02;2.47;;;1.42;;
16197;SDS011;8206;51.440;6.914;2023-05-07T13:30:29;0.73;;;0.73;;
16197;SDS011;8206;51.440;6.914;2023-05-07T13:32:56;1.13;;;1.13;;
16197;SDS011;8206;51.440;6.914;2023-05-07T13:35:24;1.50;;;1.40;;
16197;SDS011;8206;51.440;6.914;2023-05-07T13:37:50;4.15;;;1.15;;
16197;SDS011;8206;51.440;6.914;2023-05-07T13:40:19;0.70;;;0.70;;
16197;SDS011;8206;51.440;6.914;2023-05-07T13:42:46;1.08;;;1.08;;
16197;SDS011;8206;51.440;6.914;2023-05-07T13:45:13;1.38;;;1.10;;
16197;SDS011;8206;51.440;6.914;2023-05-07T13:47:40;1.67;;;1.38;;
16197;SDS011;8206;51.440;6.914;2023-05-07T13:50:07;1.30;;;1.20;;
16197;SDS011;8206;51.440;6.914;2023-05-07T13:52:36;1.75;;;1.65;;
16197;SDS011;8206;51.440;6.914;2023-05-07T13:55:03;1.65;;;1.15;;
16197;SDS011;8206;51.440;6.914;2023-05-07T13:57:30;2.03;;;1.92;;
16197;SDS011;8206;51.440;6.914;2023-05-07T13:59:56;2.55;;;2.35;;
16197;SDS011;8206;51.440;6.914;2023-05-07T14:02:23;1.88;;;1.73;;
16197;SDS011;8206;51.440;6.914;2023-05-07T14:04:50;2.97;;;1.95;;
16197;SDS011;8206;51.440;6.914;2023-05-07T14:07:16;1.13;;;1.13;;
16197;SDS011;8206;51.440;6.914;2023-05-07T14:09:44;6.47;;;2.05;;
16197;SDS011;8206;51.440;6.914;2023-05-07T14:12:11;1.60;;;1.50;;
16197;SDS011;8206;51.440;6.914;2023-05-07T14:14:38;4.78;;;2.47;;
16197;SDS011;8206;51.440;6.914;2023-05-07T14:17:04;1.88;;;1.77;;
16197;SDS011;8206;51.440;6.914;2023-05-07T14:19:31;1.25;;;1.25;;
16197;SDS011;8206;51.440;6.914;2023-05-07T14:21:58;1.33;;;1.30;;
16197;SDS011;8206;51.440;6.914;2023-05-07T14:24:24;1.27;;;1.27;;
16197;SDS011;8206;51.440;6.914;2023-05-07T14:26:52;1.13;;;1.13;;
16197;SDS011;8206;51.440;6.914;2023-05-07T14:29:19;1.92;;;1.40;;
16197;SDS011;8206;51.440;6.914;2023-05-07T14:31:47;1.85;;;1.15;;
16197;SDS011;8206;51.440;6.914;2023-05-07T14:34:13;1.95;;;1.75;;
16197;SDS011;8206;51.440;6.914;2023-05-07T14:36:40;2.67;;;1.48;;
16197;SDS011;8206;51.440;6.914;2023-05-07T14:39:07;1.50;;;1.40;;
16197;SDS011;8206;51.440;6.914;2023-05-07T14:41:34;3.83;;;1.88;;
16197;SDS011;8206;51.440;6.914;2023-05-07T14:44:02;0.75;;;0.75;;
16197;SDS011;8206;51.440;6.914;2023-05-07T14:46:29;1.80;;;1.70;;
16197;SDS011;8206;51.440;6.914;2023-05-07T14:48:56;1.50;;;1.48;;
16197;SDS011;8206;51.440;6.914;2023-05-07T14:51:23;1.65;;;1.55;;
16197;SDS011;8206;51.440;6.914;2023-05-07T14:53:50;2.35;;;1.75;;
16197;SDS011;8206;51.440;6.914;2023-05-07T14:56:17;1.38;;;1.35;;
16197;SDS011;8206;51.440;6.914;2023-05-07T14:58:45;1.50;;;1.45;;
16197;SDS011;8206;51.440;6.914;2023-05-07T15:01:14;0.77;;;0.77;;
16197;SDS011;8206;51.440;6.914;2023-05-07T15:03:41;1.80;;;1.67;;
16197;SDS011;8206;51.440;6.914;2023-05-07T15:06:08;1.40;;;1.40;;
16197;SDS011;8206;51.440;6.914;2023-05-07T15:08:34;1.55;;;1.15;;
16197;SDS011;8206;51.440;6.914;2023-05-07T15:11:01;1.85;;;1.75;;
16197;SDS011;8206;51.440;6.914;2023-05-07T15:13:27;2.65;;;2.50;;
16197;SDS011;8206;51.440;6.914;2023-05-07T15:15:54;2.70;;;2.60;;
16197;SDS011;8206;51.440;6.914;2023-05-07T15:18:23;3.55;;;3.22;;